Map

Track Data

SID SEASON NUMBER BASIN SUBBASIN NAME ISO_TIME NATURE LAT LON WMO_WIND WMO_PRES WMO_AGENCY TRACK_TYPE DIST2LAND LANDFALL IFLAG USA_AGENCY USA_ATCF_ID USA_LAT USA_LON USA_RECORD USA_STATUS USA_WIND USA_PRES USA_SSHS USA_R34_NE USA_R34_SE USA_R34_SW USA_R34_NW USA_R50_NE USA_R50_SE USA_R50_SW USA_R50_NW USA_R64_NE USA_R64_SE USA_R64_SW USA_R64_NW USA_POCI USA_ROCI USA_RMW USA_EYE TOKYO_LAT TOKYO_LON TOKYO_GRADE TOKYO_WIND TOKYO_PRES TOKYO_R50_DIR TOKYO_R50_LONG TOKYO_R50_SHORT TOKYO_R30_DIR TOKYO_R30_LONG TOKYO_R30_SHORT TOKYO_LAND CMA_LAT CMA_LON CMA_CAT CMA_WIND CMA_PRES HKO_LAT HKO_LON HKO_CAT HKO_WIND HKO_PRES NEWDELHI_LAT NEWDELHI_LON NEWDELHI_GRADE NEWDELHI_WIND NEWDELHI_PRES NEWDELHI_CI NEWDELHI_DP NEWDELHI_POCI REUNION_LAT REUNION_LON REUNION_TYPE REUNION_WIND REUNION_PRES REUNION_TNUM REUNION_CI REUNION_RMW REUNION_R34_NE REUNION_R34_SE REUNION_R34_SW REUNION_R34_NW REUNION_R50_NE REUNION_R50_SE REUNION_R50_SW REUNION_R50_NW REUNION_R64_NE REUNION_R64_SE REUNION_R64_SW REUNION_R64_NW BOM_LAT BOM_LON BOM_TYPE BOM_WIND BOM_PRES BOM_TNUM BOM_CI BOM_RMW BOM_R34_NE BOM_R34_SE BOM_R34_SW BOM_R34_NW BOM_R50_NE BOM_R50_SE BOM_R50_SW BOM_R50_NW BOM_R64_NE BOM_R64_SE BOM_R64_SW BOM_R64_NW BOM_ROCI BOM_POCI BOM_EYE BOM_POS_METHOD BOM_PRES_METHOD NADI_LAT NADI_LON NADI_CAT NADI_WIND NADI_PRES WELLINGTON_LAT WELLINGTON_LON WELLINGTON_WIND WELLINGTON_PRES DS824_LAT DS824_LON DS824_STAGE DS824_WIND DS824_PRES TD9636_LAT TD9636_LON TD9636_STAGE TD9636_WIND TD9636_PRES TD9635_LAT TD9635_LON TD9635_WIND TD9635_PRES TD9635_ROCI NEUMANN_LAT NEUMANN_LON NEUMANN_CLASS NEUMANN_WIND NEUMANN_PRES MLC_LAT MLC_LON MLC_CLASS MLC_WIND MLC_PRES USA_GUST BOM_GUST BOM_GUST_PER REUNION_GUST REUNION_GUST_PER USA_SEAHGT USA_SEARAD_NE USA_SEARAD_SE USA_SEARAD_SW USA_SEARAD_NW STORM_SPEED STORM_DIR
1970251N20091 1970 110 NI BB NOT_NAMED 1970-09-07 18:00:00 TS 20.3000 90.7000 main 175 175 O________O____ jtwc_io IO091970 20.3000 90.7000 -1 20.3000 90.7000 TC 1 319
1970251N20091 1970 110 NI BB NOT_NAMED 1970-09-07 21:00:00 TS 20.3425 90.6675 main 175 161 P________P____ IO091970 20.3425 90.6675 -1 20.3425 90.6675 TC 1 317
1970251N20091 1970 110 NI BB NOT_NAMED 1970-09-08 00:00:00 TS 20.4000 90.6000 main 161 148 O________O____ jtwc_io IO091970 20.4000 90.6000 -1 20.4000 90.6000 TC 25 2 309
1970251N20091 1970 110 NI BB NOT_NAMED 1970-09-08 03:00:00 TS 20.4867 90.4755 main 148 134 P________PO___ IO091970 20.4850 90.4725 -1 20.4850 90.4725 TC 25 20.5000 90.5000 1 4 306
1970251N20091 1970 110 NI BB NOT_NAMED 1970-09-08 06:00:00 TS 20.6101 90.2958 main 134 111 O________OP___ jtwc_io IO091970 20.6000 90.3000 -1 20.6000 90.3000 TC 25 20.6504 90.2790 1 4 308
1970251N20091 1970 110 NI BB NOT_NAMED 1970-09-08 09:00:00 TS 20.7611 90.0962 main 111 101 P________PP___ IO091970 20.7500 90.1075 -1 20.7500 90.1075 TC 25 20.7905 90.0661 1 5 308
1970251N20091 1970 110 NI BB NOT_NAMED 1970-09-08 12:00:00 TS 20.9035 89.8901 main 101 84 O________OP___ jtwc_io IO091970 20.9000 89.9000 -1 20.9000 89.9000 TC 25 20.9104 89.8702 1 4 303
1970251N20091 1970 110 NI BB NOT_NAMED 1970-09-08 15:00:00 TS 21.0050 89.6950 main 84 67 P________PO___ IO091970 21.0075 89.6925 -1 21.0075 89.6925 TC 25 21.0000 89.7000 1 4 298
1970251N20091 1970 110 NI BB NOT_NAMED 1970-09-08 18:00:00 TS 21.0860 89.5191 main 67 54 O________OP___ jtwc_io IO091970 21.1000 89.5000 -1 21.1000 89.5000 TC 25 21.0579 89.5573 1 3 298
1970251N20091 1970 110 NI BB NOT_NAMED 1970-09-08 21:00:00 TS 21.1622 89.3768 main 54 35 P________PP___ IO091970 21.1849 89.3574 -1 21.1849 89.3574 TC 25 21.1167 89.4156 1 3 303
1970251N20091 1970 110 NI BB NOT_NAMED 1970-09-09 00:00:00 TS 21.2724 89.2137 main 35 22 O________OP___ jtwc_io IO091970 21.3000 89.2000 -1 21.3000 89.2000 TC 25 21.2172 89.2412 1 4 307
1970251N20091 1970 110 NI BB NOT_NAMED 1970-09-09 03:00:00 TS 21.4265 89.0013 main 22 0 P________PO___ IO091970 21.4398 89.0020 -1 21.4398 89.0020 TC 25 21.4000 89.0000 1 7 312
1970251N20091 1970 110 NI BB NOT_NAMED 1970-09-09 06:00:00 TS 21.7197 88.6762 main 0 0 O________OP___ jtwc_io IO091970 21.7000 88.7000 -1 21.7000 88.7000 TC 25 21.7591 88.6287 1 11 316
1970251N20091 1970 110 NI BB NOT_NAMED 1970-09-09 09:00:00 TS 22.1931 88.2075 main 0 0 P________PP___ IO091970 22.1928 88.2159 -1 22.1928 88.2159 TC 25 22.1935 88.1906 1 13 317
1970251N20091 1970 110 NI BB NOT_NAMED 1970-09-09 12:00:00 TS 22.6770 87.7106 main 0 0 O________OP___ jtwc_io IO091970 22.7000 87.7000 -1 22.7000 87.7000 TC 25 22.6311 87.7318 1 12 315
1970251N20091 1970 110 NI BB NOT_NAMED 1970-09-09 15:00:00 TS 23.0065 87.3131 main 0 0 P________PO___ IO091970 23.0098 87.3196 -1 23.0098 87.3196 TC 25 23.0000 87.3000 1 9 308
1970251N20091 1970 110 NI BB NOT_NAMED 1970-09-09 18:00:00 TS 23.2066 86.9863 main 0 0 O________OP___ jtwc_io IO091970 23.2000 87.0000 -1 23.2000 87.0000 TC 25 23.2197 86.9588 1 7 300
1970251N20091 1970 110 NI BB NOT_NAMED 1970-09-09 21:00:00 TS 23.3405 86.6794 main 0 0 P________PP___ IO091970 23.3299 86.6923 -1 23.3299 86.6923 TC 25 23.3618 86.6537 1 6 291
1970251N20091 1970 110 NI BB NOT_NAMED 1970-09-10 00:00:00 TS 23.4160 86.3906 main 0 0 O________OP___ jtwc_io IO091970 23.4000 86.4000 -1 23.4000 86.4000 TC 25 23.4480 86.3717 1 6 284
1970251N20091 1970 110 NI BB NOT_NAMED 1970-09-10 03:00:00 TS 23.4717 86.0950 main 0 0 P________PO___ IO091970 23.4575 86.0924 -1 23.4575 86.0924 TC 25 23.5000 86.1000 1 5 281
1970251N20091 1970 110 NI BB NOT_NAMED 1970-09-10 06:00:00 TS 23.5165 85.8018 main 0 0 O________OP___ jtwc_io IO091970 23.5000 85.8000 -1 23.5000 85.8000 TC 25 23.5496 85.8052 1 5 280
1970251N20091 1970 110 NI BB NOT_NAMED 1970-09-10 09:00:00 TS 23.5624 85.5349 main 0 0 P________PP___ IO091970 23.5574 85.5425 -1 23.5574 85.5425 TC 25 23.5724 85.5195 1 5 279
1970251N20091 1970 110 NI BB NOT_NAMED 1970-09-10 12:00:00 TS 23.5947 85.2830 main 0 0 O________OP___ jtwc_io IO091970 23.6000 85.3000 -1 23.6000 85.3000 TC 25 23.5840 85.2491 1 5 275
1970251N20091 1970 110 NI BB NOT_NAMED 1970-09-10 15:00:00 TS 23.6000 85.0283 main 0 0 P________PO___ IO091970 23.6000 85.0424 -1 23.6000 85.0424 TC 25 23.6000 85.0000 1 4 272
1970251N20091 1970 110 NI BB NOT_NAMED 1970-09-10 18:00:00 TS 23.6074 84.7968 main 0 0 O________OP___ jtwc_io IO091970 23.6000 84.8000 -1 23.6000 84.8000 TC 25 23.6221 84.7903 1 4 276
1970251N20091 1970 110 NI BB NOT_NAMED 1970-09-10 21:00:00 TS 23.6414 84.5998 main 0 0 P________PP___ IO091970 23.6349 84.6000 -1 23.6349 84.6000 TC 25 23.6545 84.5995 1 4 285
1970251N20091 1970 110 NI BB NOT_NAMED 1970-09-11 00:00:00 TS 23.7032 84.4030 main 0 0 O________OP___ jtwc_io IO091970 23.7000 84.4000 -1 23.7000 84.4000 TC 25 23.7096 84.4089 1 4 290
1970251N20091 1970 110 NI BB NOT_NAMED 1970-09-11 03:00:00 TS 23.7850 84.1716 main 0 0 P________PO___ IO091970 23.7775 84.1574 -1 23.7775 84.1574 TC 25 23.8000 84.2000 1 5 295
1970251N20091 1970 110 NI BB NOT_NAMED 1970-09-11 06:00:00 TS 23.9117 83.9142 main 0 0 O________OP___ jtwc_io IO091970 23.9000 83.9000 -1 23.9000 83.9000 TC 25 23.9351 83.9427 1 6 303
1970251N20091 1970 110 NI BB NOT_NAMED 1970-09-11 09:00:00 TS 24.0917 83.6601 main 0 0 P________PP___ IO091970 24.0849 83.6575 -1 24.0849 83.6575 TC 25 24.1051 83.6652 1 6 309
1970251N20091 1970 110 NI BB NOT_NAMED 1970-09-11 12:00:00 TS 24.2992 83.3934 main 0 0 O________OP___ jtwc_io IO091970 24.3000 83.4000 -1 24.3000 83.4000 TC 25 24.2976 83.3801 1 7 309
1970251N20091 1970 110 NI BB NOT_NAMED 1970-09-11 15:00:00 TS 24.5000 83.1000 main 0 0 P________PO___ IO091970 24.5000 83.1000 -1 24.5000 83.1000 TC 25 24.5000 83.1000 1 7 307
1970251N20091 1970 110 NI BB NOT_NAMED 1970-09-11 18:00:00 TS 24.7016 82.8116 main 0 0 O________OP___ jtwc_io IO091970 24.7000 82.8000 -1 24.7000 82.8000 TC 25 24.7049 82.8347 1 6 309
1970251N20091 1970 110 NI BB NOT_NAMED 1970-09-11 21:00:00 TS 24.9049 82.5491 main 0 0 P________PP___ IO091970 24.9000 82.5349 -1 24.9000 82.5349 TC 25 24.9149 82.5776 1 6 312
1970251N20091 1970 110 NI BB NOT_NAMED 1970-09-12 00:00:00 TS 25.1058 82.3106 main 0 0 O________OP___ jtwc_io IO091970 25.1000 82.3000 -1 25.1000 82.3000 TC 25 25.1174 82.3316 1 6 315
1970251N20091 1970 110 NI BB NOT_NAMED 1970-09-12 03:00:00 TS 25.3100 82.0950 main 0 0 P________PO___ IO091970 25.3149 82.0925 -1 25.3149 82.0925 TC 25 25.3000 82.1000 1 5 315
1970251N20091 1970 110 NI BB NOT_NAMED 1970-09-12 06:00:00 TS 25.4780 81.8964 main 0 0 O________OP___ jtwc_io IO091970 25.5000 81.9000 -1 25.5000 81.9000 TC 25 25.4341 81.8891 1 5 308
1970251N20091 1970 110 NI BB NOT_NAMED 1970-09-12 09:00:00 TS 25.5882 81.6971 main 0 0 P________PP___ IO091970 25.6075 81.6999 -1 25.6075 81.6999 TC 25 25.5497 81.6917 1 4 300
1970251N20091 1970 110 NI BB NOT_NAMED 1970-09-12 12:00:00 TS 25.6885 81.4995 main 0 0 O________OP___ jtwc_io IO091970 25.7000 81.5000 -1 25.7000 81.5000 TC 25 25.6654 81.4985 1 4 304
1970251N20091 1970 110 NI BB NOT_NAMED 1970-09-12 15:00:00 TS 25.8233 81.3049 main 0 0 P________PO___ IO091970 25.8349 81.3074 -1 25.8349 81.3074 TC 25 25.8000 81.3000 1 5 311
1970251N20091 1970 110 NI BB NOT_NAMED 1970-09-12 18:00:00 TS 26.0091 81.0889 main 0 0 O________OP___ jtwc_io IO091970 26.0000 81.1000 -1 26.0000 81.1000 TC 25 26.0273 81.0667 1 6 314
1970251N20091 1970 110 NI BB NOT_NAMED 1970-09-12 21:00:00 TS 26.2276 80.8429 main 0 0 P________PP___ IO091970 26.2075 80.8501 -1 26.2075 80.8501 TC 25 26.2677 80.8286 1 6 313
1970251N20091 1970 110 NI BB NOT_NAMED 1970-09-13 00:00:00 TS 26.4247 80.6003 main 0 0 O________OP___ jtwc_io IO091970 26.4000 80.6000 -1 26.4000 80.6000 TC 25 26.4742 80.6011 1 5 310
1970251N20091 1970 110 NI BB NOT_NAMED 1970-09-13 03:00:00 TS 26.5683 80.3950 main 0 0 P________PO___ IO091970 26.5524 80.3925 -1 26.5524 80.3925 TC 25 26.6000 80.4000 1 4 294
1970251N20091 1970 110 NI BB NOT_NAMED 1970-09-13 06:00:00 TS 26.5872 80.1948 main 0 0 O________OP___ jtwc_io IO091970 26.6000 80.2000 -1 26.6000 80.2000 TC 25 26.5617 80.1845 1 4 255
1970251N20091 1970 110 NI BB NOT_NAMED 1970-09-13 09:00:00 TS 26.4633 79.9669 main 0 0 P________PP___ IO091970 26.4726 79.9472 -1 26.4726 79.9472 TC 25 26.4447 80.0065 1 4 229
1970251N20091 1970 110 NI BB NOT_NAMED 1970-09-13 12:00:00 TS 26.3018 79.8335 main 0 0 O________OP___ jtwc_io IO091970 26.3000 79.8000 -1 26.3000 79.8000 TC 25 26.3053 79.9004 1 3 196
1970251N20091 1970 110 NI BB NOT_NAMED 1970-09-13 15:00:00 TS 26.2083 79.8885 main 0 0 P________PO___ IO091970 26.2124 79.8827 -1 26.2124 79.8827 TC 25 26.2000 79.9000 1 2 112
1970251N20091 1970 110 NI BB NOT_NAMED 1970-09-13 18:00:00 TS 26.2132 80.0819 main 0 0 O________OP___ jtwc_io IO091970 26.2000 80.1000 -1 26.2000 80.1000 TC 25 26.2396 80.0457 1 4 76
1970251N20091 1970 110 NI BB NOT_NAMED 1970-09-13 21:00:00 TS 26.3052 80.3212 main 0 0 P________PP___ IO091970 26.3000 80.3348 -1 26.3000 80.3348 TC 25 26.3154 80.2941 1 5 69
1970251N20091 1970 110 NI BB NOT_NAMED 1970-09-14 00:00:00 TS 26.3945 80.5985 main 0 0 O________OP___ jtwc_io IO091970 26.4000 80.6000 -1 26.4000 80.6000 TC 25 26.3835 80.5955 1 5 79
1970251N20091 1970 110 NI BB NOT_NAMED 1970-09-14 03:00:00 TS 26.3966 80.8666 main 0 0 P________PO___ IO091970 26.3950 80.8500 -1 26.3950 80.8500 TC 25 26.4000 80.9000 1 5 102
1970251N20091 1970 110 NI BB NOT_NAMED 1970-09-14 06:00:00 TS 26.2957 81.1177 main 0 0 O________OP___ jtwc_io IO091970 26.3000 81.1000 -1 26.3000 81.1000 TC 25 26.2872 81.1533 1 5 122
1970251N20091 1970 110 NI BB NOT_NAMED 1970-09-14 09:00:00 TS 26.1075 81.3755 main 0 0 P________PP___ IO091970 26.1000 81.3652 -1 26.1000 81.3652 TC 25 26.1226 81.3960 1 6 131
1970251N20091 1970 110 NI BB NOT_NAMED 1970-09-14 12:00:00 TS 25.9155 81.6052 main 0 0 O________OP___ jtwc_io IO091970 25.9000 81.6000 -1 25.9000 81.6000 TC 25 25.9466 81.6157 1 5 128
1970251N20091 1970 110 NI BB NOT_NAMED 1970-09-14 15:00:00 TS 25.8183 81.7816 main 0 0 P________PO___ IO091970 25.8274 81.7723 -1 25.8274 81.7723 TC 25 25.8000 81.8000 1 3 117
1970251N20091 1970 110 NI BB NOT_NAMED 1970-09-14 18:00:00 TS 25.7782 81.9064 main 0 0 O________OP___ jtwc_io IO091970 25.8000 81.9000 -1 25.8000 81.9000 TC 25 25.7347 81.9193 1 2 114
1970251N20091 1970 110 NI BB NOT_NAMED 1970-09-14 21:00:00 TS 25.7298 82.0024 main 0 0 P________PP___ IO091970 25.7425 82.0000 -1 25.7425 82.0000 TC 25 25.7046 82.0071 1 2 115
1970251N20091 1970 110 NI BB NOT_NAMED 1970-09-15 00:00:00 TS 25.6991 82.0971 main 0 0 O________OP___ jtwc_io IO091970 25.7000 82.1000 -1 25.7000 82.1000 TC 25 25.6972 82.0913 1 2 100
1970251N20091 1970 110 NI BB NOT_NAMED 1970-09-15 03:00:00 TS 25.6950 82.2233 main 0 0 P________PO___ IO091970 25.6925 82.2350 -1 25.6925 82.2350 TC 25 25.7000 82.2000 1 3 91
1970251N20091 1970 110 NI BB NOT_NAMED 1970-09-15 06:00:00 TS 25.6936 82.3972 main 0 0 O________OP___ jtwc_io IO091970 25.7000 82.4000 -1 25.7000 82.4000 TC 25 25.6809 82.3916 1 3 92
1970251N20091 1970 110 NI BB NOT_NAMED 1970-09-15 09:00:00 TS 25.6851 82.6025 main 0 0 P________PP___ IO091970 25.6925 82.6000 -1 25.6925 82.6000 TC 25 25.6703 82.6076 1 4 90
1970251N20091 1970 110 NI BB NOT_NAMED 1970-09-15 12:00:00 TS 25.6915 82.8066 main 0 0 O________OP___ jtwc_io IO091970 25.7000 82.8000 -1 25.7000 82.8000 TC 25 25.6746 82.8197 1 3 83
1970251N20091 1970 110 NI BB NOT_NAMED 1970-09-15 15:00:00 TS 25.7283 82.9817 main 0 0 P________PO___ IO091970 25.7425 82.9725 -1 25.7425 82.9725 TC 25 25.7000 83.0000 1 3 71
1970251N20091 1970 110 NI BB NOT_NAMED 1970-09-15 18:00:00 TS 25.7858 83.1023 main 0 0 O________OP___ jtwc_io IO091970 25.8000 83.1000 -1 25.8000 83.1000 TC 25 25.7573 83.1068 1 2 55
1970251N20091 1970 110 NI BB NOT_NAMED 1970-09-15 21:00:00 TS 25.8449 83.1650 main 0 0 P________PP___ IO091970 25.8500 83.1575 -1 25.8500 83.1575 TC 25 25.8348 83.1800 1 2 38
1970251N20091 1970 110 NI BB NOT_NAMED 1970-09-16 00:00:00 TS 25.9066 83.2127 main 0 0 O________OP___ jtwc_io IO091970 25.9000 83.2000 -1 25.9000 83.2000 TC 25 25.9199 83.2381 1 2 43
1970251N20091 1970 110 NI BB NOT_NAMED 1970-09-16 03:00:00 TS 25.9667 83.2950 main 0 0 P________PO___ IO091970 25.9500 83.2925 -1 25.9500 83.2925 TC 25 26.0000 83.3000 1 2 55
1970251N20091 1970 110 NI BB NOT_NAMED 1970-09-16 06:00:00 TS 26.0191 83.3963 main 0 0 O________OP___ jtwc_io IO091970 26.0000 83.4000 -1 26.0000 83.4000 TC 25 26.0572 83.3888 1 2 61
1970251N20091 1970 110 NI BB NOT_NAMED 1970-09-16 09:00:00 TS 26.0692 83.4950 main 0 0 P________PP___ IO091970 26.0500 83.5000 -1 26.0500 83.5000 TC 25 26.1075 83.4851 1 2 61
1970251N20091 1970 110 NI BB NOT_NAMED 1970-09-16 12:00:00 TS 26.1180 83.5963 main 0 0 O________OP___ jtwc_io IO091970 26.1000 83.6000 -1 26.1000 83.6000 TC 25 26.1540 83.5888 1 2 62
1970251N20091 1970 110 NI BB NOT_NAMED 1970-09-16 15:00:00 TS 26.1667 83.6950 main 0 0 P________PO___ IO091970 26.1500 83.6925 -1 26.1500 83.6925 TC 25 26.2000 83.7000 1 2 62
1970251N20091 1970 110 NI BB NOT_NAMED 1970-09-16 18:00:00 TS 26.2153 83.8046 main 0 0 O________OP___ jtwc_io IO091970 26.2000 83.8000 -1 26.2000 83.8000 TC 25 26.2459 83.8138 1 2 67
1970251N20091 1970 110 NI BB NOT_NAMED 1970-09-16 21:00:00 TS 26.2592 83.9450 main 0 0 P________PP___ IO091970 26.2425 83.9500 -1 26.2425 83.9500 TC 25 26.2925 83.9351 1 3 69
1970251N20091 1970 110 NI BB NOT_NAMED 1970-09-17 00:00:00 TS 26.3143 84.0879 main 0 0 O________OP___ jtwc_io IO091970 26.3000 84.1000 -1 26.3000 84.1000 TC 25 26.3428 84.0638 1 3 58
1970251N20091 1970 110 NI BB NOT_NAMED 1970-09-17 03:00:00 TS 26.4000 84.2000 main 0 0 P________PO___ IO091970 26.4000 84.2000 -1 26.4000 84.2000 TC 25 26.4000 84.2000 1 3 50
1970251N20091 1970 110 NI BB NOT_NAMED 1970-09-17 06:00:00 TS 26.4865 84.3173 main 0 0 O________OP___ jtwc_io IO091970 26.5000 84.3000 -1 26.5000 84.3000 TC 25 26.4663 84.3433 1 3 57
1970251N20091 1970 110 NI BB NOT_NAMED 1970-09-17 09:00:00 TS 26.5530 84.4610 main 0 0 P________PP___ IO091970 26.5626 84.4375 -1 26.5626 84.4375 TC 25 26.5401 84.4923 1 3 66
1970251N20091 1970 110 NI BB NOT_NAMED 1970-09-17 12:00:00 TS 26.6094 84.6226 main 0 0 O________OP___ jtwc_io IO091970 26.6000 84.6000 -1 26.6000 84.6000 TC 25 26.6189 84.6451 1 3 64
1970251N20091 1970 110 NI BB NOT_NAMED 1970-09-17 15:00:00 NR 26.7000 84.8000 main 0 __________O___ IO091970 -1 TC 26.7000 84.8000 1 4 60

About IBTrACS Database

This database is a web-friendly format of International Best Track Archive for Climate Stewardship (IBTrACS), a global best track data archive curated by NOAA dating back to 1842.

Updated: 2021-10-08